Time;durP1;ratioP1;P1;durP2;ratioP2;P2;SDS_P1;SDS_P2;PMS_P1;PMS_P2;Temp;Humidity;BMP_temperature;BMP_pressure;BME280_temperature;BME280_humidity;BME280_pressure;Samples;Min_cycle;Max_cycle;Signal;HPM_P1;HPM_P2
2024/01/15 00:01:20;;;;;;;7.93;6.77;;;13.30;94.80;;;;;;4591780;19;20456;-78
2024/01/15 00:02:57;;;;;;;9.83;7.97;;;13.30;94.80;;;;;;4591170;19;20340;-77
2024/01/15 00:04:36;;;;;;;8.37;7.37;;;13.30;94.80;;;;;;4593152;19;20010;-77
2024/01/15 00:06:11;;;;;;;7.50;6.80;;;13.30;94.80;;;;;;4591751;19;20050;-78
2024/01/15 00:07:47;;;;;;;8.20;6.67;;;13.20;94.70;;;;;;4592711;19;20335;-77
2024/01/15 00:09:22;;;;;;;9.63;7.20;;;13.20;94.70;;;;;;4593152;19;20091;-77
2024/01/15 00:10:56;;;;;;;12.40;9.10;;;13.20;94.70;;;;;;4593297;19;20009;-77
2024/01/15 00:12:30;;;;;;;8.53;7.20;;;13.30;94.70;;;;;;4592979;19;20332;-77
2024/01/15 00:14:06;;;;;;;9.60;8.17;;;13.30;94.70;;;;;;4593322;19;20467;-77
2024/01/15 00:15:41;;;;;;;8.13;7.33;;;13.20;94.70;;;;;;4592899;19;20039;-78
2024/01/15 00:17:15;;;;;;;7.50;6.17;;;13.20;94.70;;;;;;4592348;19;20362;-78
2024/01/15 00:18:50;;;;;;;7.53;6.53;;;13.20;94.70;;;;;;4592013;19;19999;-77
2024/01/15 00:20:25;;;;;;;8.27;6.17;;;13.20;94.70;;;;;;4593118;19;20009;-77
2024/01/15 00:21:59;;;;;;;9.13;7.43;;;13.20;94.70;;;;;;4592748;19;20229;-77
2024/01/15 00:23:35;;;;;;;8.43;6.37;;;13.30;94.70;;;;;;4591583;19;20006;-77
2024/01/15 00:25:09;;;;;;;7.87;6.70;;;13.20;94.60;;;;;;4592700;19;20414;-77
2024/01/15 00:26:44;;;;;;;9.47;6.60;;;13.20;94.60;;;;;;4592312;19;20006;-77
2024/01/15 00:28:19;;;;;;;9.17;6.53;;;13.20;94.60;;;;;;4592752;19;20070;-77
2024/01/15 00:29:54;;;;;;;7.83;6.23;;;13.20;94.60;;;;;;4592891;19;20058;-77
2024/01/15 00:31:29;;;;;;;9.27;6.73;;;13.20;94.60;;;;;;4592667;19;20006;-77
2024/01/15 00:33:05;;;;;;;7.97;6.43;;;13.20;94.60;;;;;;4592623;19;20438;-77
2024/01/15 00:34:39;;;;;;;8.77;7.23;;;13.20;94.60;;;;;;4592480;19;20354;-77
2024/01/15 00:36:14;;;;;;;8.03;6.13;;;13.20;94.60;;;;;;4592338;19;20425;-77
2024/01/15 00:37:51;;;;;;;10.40;7.80;;;13.20;94.60;;;;;;4592311;19;20444;-77
2024/01/15 00:39:25;;;;;;;7.80;6.43;;;13.20;94.60;;;;;;4592387;19;20310;-77
2024/01/15 00:40:59;;;;;;;8.10;7.10;;;13.20;94.60;;;;;;4592762;19;20381;-77
2024/01/15 00:42:34;;;;;;;7.87;6.60;;;13.20;94.60;;;;;;4592855;19;20011;-77
2024/01/15 00:44:08;;;;;;;7.67;6.43;;;13.20;94.60;;;;;;4592408;19;20002;-77
2024/01/15 00:45:43;;;;;;;10.20;7.20;;;13.10;94.60;;;;;;4592370;19;20318;-77
2024/01/15 00:47:19;;;;;;;7.90;6.53;;;13.10;94.60;;;;;;4590236;19;20010;-77
2024/01/15 00:48:53;;;;;;;8.90;6.70;;;13.10;94.50;;;;;;4592226;19;20020;-77
2024/01/15 00:50:27;;;;;;;7.67;6.40;;;13.10;94.60;;;;;;4592555;19;20010;-77
2024/01/15 00:52:02;;;;;;;9.90;6.90;;;13.10;94.50;;;;;;4592312;19;20010;-77
2024/01/15 00:53:37;;;;;;;9.63;7.87;;;13.20;94.50;;;;;;4592231;19;20010;-78
2024/01/15 00:55:11;;;;;;;10.67;7.40;;;13.10;94.50;;;;;;4592445;19;20425;-77
2024/01/15 00:56:47;;;;;;;9.00;7.73;;;13.10;94.60;;;;;;4591320;19;20019;-77
2024/01/15 00:58:20;;;;;;;8.73;7.37;;;13.10;94.60;;;;;;4591782;19;20040;-77
2024/01/15 00:59:55;;;;;;;8.57;7.60;;;13.20;94.70;;;;;;4592119;19;20026;-77
2024/01/15 01:11:32;;;;;;;7.97;6.77;;;13.10;94.90;;;;;;4583427;19;20015;-76
2024/01/15 01:13:07;;;;;;;7.50;6.60;;;13.10;94.90;;;;;;4592221;19;20006;-77
2024/01/15 01:14:42;;;;;;;8.17;7.17;;;13.10;95.00;;;;;;4595303;19;19999;-77
2024/01/15 01:16:15;;;;;;;9.97;8.27;;;13.10;95.00;;;;;;4596974;19;19999;-76
2024/01/15 01:17:50;;;;;;;8.20;6.93;;;13.10;95.00;;;;;;4596185;19;20003;-77
2024/01/15 01:19:25;;;;;;;8.23;7.23;;;13.10;95.00;;;;;;4596855;19;19998;-77
2024/01/15 01:20:59;;;;;;;8.13;6.37;;;13.10;95.00;;;;;;4594339;19;20002;-76
2024/01/15 01:22:34;;;;;;;9.40;7.83;;;13.10;95.00;;;;;;4596191;19;19999;-77
2024/01/15 01:24:07;;;;;;;8.93;7.70;;;13.10;95.00;;;;;;4596794;19;20035;-77
2024/01/15 01:25:41;;;;;;;9.57;7.67;;;13.10;95.00;;;;;;4596491;19;20003;-76
2024/01/15 01:27:18;;;;;;;9.53;7.33;;;13.00;94.90;;;;;;4596446;19;20003;-77
2024/01/15 01:28:51;;;;;;;8.70;7.00;;;13.10;95.00;;;;;;4596698;19;20402;-76
2024/01/15 01:30:28;;;;;;;8.60;7.67;;;13.10;95.00;;;;;;4595942;19;20010;-76
2024/01/15 01:32:03;;;;;;;9.77;8.07;;;13.10;95.10;;;;;;4596390;19;20006;-76
2024/01/15 01:33:40;;;;;;;9.13;8.10;;;13.10;95.10;;;;;;4596357;19;20108;-77
2024/01/15 01:35:14;;;;;;;8.53;7.63;;;13.10;95.00;;;;;;4596374;19;20326;-76
2024/01/15 01:36:49;;;;;;;9.37;8.00;;;13.00;95.00;;;;;;4596496;19;20437;-76
2024/01/15 01:38:22;;;;;;;8.80;7.60;;;13.10;95.30;;;;;;4595459;19;20018;-76
2024/01/15 01:39:56;;;;;;;9.10;8.20;;;13.00;95.00;;;;;;4596208;19;19999;-76
2024/01/15 01:41:31;;;;;;;9.03;8.10;;;13.10;95.10;;;;;;4594413;19;19998;-76
2024/01/15 01:43:06;;;;;;;8.67;7.77;;;13.00;95.10;;;;;;4596424;19;19999;-76
2024/01/15 01:44:41;;;;;;;9.57;8.00;;;13.10;95.10;;;;;;4596065;19;20089;-76
2024/01/15 01:46:16;;;;;;;9.27;7.93;;;13.10;95.10;;;;;;4596147;19;20298;-76
2024/01/15 01:47:50;;;;;;;10.77;9.10;;;13.10;95.10;;;;;;4596273;19;20419;-76
2024/01/15 01:49:24;;;;;;;8.83;7.93;;;13.10;95.10;;;;;;4596003;19;20070;-76
2024/01/15 01:51:00;;;;;;;9.10;7.70;;;13.10;95.10;;;;;;4594853;19;20020;-77
2024/01/15 01:52:33;;;;;;;8.70;7.77;;;13.10;95.10;;;;;;4594878;19;20006;-76
2024/01/15 01:54:08;;;;;;;8.03;6.87;;;13.10;95.10;;;;;;4594795;19;20075;-76
2024/01/15 01:55:45;;;;;;;8.37;6.83;;;13.10;95.10;;;;;;4595642;19;20011;-76
2024/01/15 01:57:19;;;;;;;9.33;7.60;;;13.10;95.10;;;;;;4594568;19;20435;-76
2024/01/15 01:58:53;;;;;;;7.73;6.90;;;13.10;95.10;;;;;;4594200;19;20287;-77
2024/01/15 02:00:28;;;;;;;8.97;8.03;;;13.10;95.10;;;;;;4595541;19;20006;-76
2024/01/15 02:02:03;;;;;;;9.70;8.23;;;13.10;95.10;;;;;;4594654;19;20010;-76
2024/01/15 02:03:37;;;;;;;7.93;7.07;;;13.10;95.10;;;;;;4594375;19;20006;-76
2024/01/15 02:05:13;;;;;;;9.23;7.67;;;13.10;95.30;;;;;;4595354;19;19999;-76
2024/01/15 02:06:47;;;;;;;8.10;6.93;;;13.10;95.10;;;;;;4595641;19;20031;-76
2024/01/15 02:08:22;;;;;;;8.67;7.47;;;13.10;95.10;;;;;;4595896;19;20066;-76
2024/01/15 02:09:57;;;;;;;10.07;8.13;;;13.10;95.10;;;;;;4595610;19;20006;-76
2024/01/15 02:11:31;;;;;;;10.07;7.93;;;13.10;95.10;;;;;;4593638;19;20464;-77
2024/01/15 02:13:04;;;;;;;8.30;7.40;;;13.00;95.10;;;;;;4595512;19;20007;-76
2024/01/15 02:14:40;;;;;;;8.10;6.93;;;13.10;95.00;;;;;;4595507;19;20006;-76
2024/01/15 02:16:14;;;;;;;8.87;7.20;;;13.10;95.10;;;;;;4595457;19;20413;-76
2024/01/15 02:18:13;;;;;;;8.77;7.70;;;13.00;95.10;;;;;;4595391;19;20023;-76
2024/01/15 02:19:50;;;;;;;7.50;6.70;;;13.10;95.10;;;;;;4594886;19;20010;-77
2024/01/15 02:21:26;;;;;;;8.47;6.70;;;13.00;95.00;;;;;;4594196;19;20405;-76
2024/01/15 02:23:18;;;;;;;7.97;6.97;;;13.00;95.00;;;;;;4595259;19;20010;-77
2024/01/15 02:24:55;;;;;;;8.60;7.17;;;13.00;95.00;;;;;;4594380;19;20010;-76
2024/01/15 02:26:29;;;;;;;7.33;6.53;;;13.00;95.00;;;;;;4592625;19;20069;-76
2024/01/15 02:28:03;;;;;;;6.97;6.10;;;13.10;95.10;;;;;;4595114;19;20003;-76
2024/01/15 02:29:38;;;;;;;7.70;6.53;;;13.00;95.00;;;;;;4595286;19;20018;-76
2024/01/15 02:31:12;;;;;;;7.97;7.00;;;13.00;95.00;;;;;;4592861;19;20096;-76
2024/01/15 02:32:46;;;;;;;7.93;6.93;;;13.00;95.00;;;;;;4594920;19;20006;-76
2024/01/15 02:34:21;;;;;;;8.83;6.57;;;13.00;95.00;;;;;;4593812;19;20303;-76
2024/01/15 02:35:57;;;;;;;8.07;7.27;;;13.00;95.00;;;;;;4594943;19;19999;-76
2024/01/15 02:37:31;;;;;;;9.27;7.47;;;13.00;95.00;;;;;;4595281;19;20005;-76
2024/01/15 02:39:06;;;;;;;7.77;6.53;;;13.00;95.00;;;;;;4593714;19;20443;-76
2024/01/15 02:40:40;;;;;;;7.53;6.20;;;13.00;94.90;;;;;;4594632;19;20006;-76
2024/01/15 02:42:14;;;;;;;7.57;6.77;;;13.10;95.00;;;;;;4595028;19;20033;-76
2024/01/15 02:43:50;;;;;;;8.00;6.77;;;13.00;94.90;;;;;;4595447;19;20025;-77
2024/01/15 02:45:24;;;;;;;9.13;6.93;;;13.00;95.10;;;;;;4595142;19;19994;-76
2024/01/15 02:46:57;;;;;;;7.07;6.37;;;13.00;95.40;;;;;;4594843;19;20005;-76
2024/01/15 02:48:34;;;;;;;7.90;6.17;;;13.00;94.90;;;;;;4594829;19;20096;-76
2024/01/15 02:50:08;;;;;;;7.90;6.40;;;13.00;94.90;;;;;;4594817;19;20007;-76
2024/01/15 02:51:43;;;;;;;8.07;6.40;;;13.00;95.00;;;;;;4594767;19;20022;-77
2024/01/15 02:53:18;;;;;;;7.83;6.53;;;13.00;94.90;;;;;;4594761;19;20484;-76
2024/01/15 02:54:52;;;;;;;8.40;6.67;;;13.00;94.90;;;;;;4594675;19;20002;-77
2024/01/15 02:56:26;;;;;;;8.27;6.87;;;13.00;94.80;;;;;;4594579;19;20030;-76
2024/01/15 02:58:01;;;;;;;7.33;6.23;;;13.00;94.90;;;;;;4593075;19;20014;-76
2024/01/15 02:59:35;;;;;;;7.80;6.07;;;13.00;94.80;;;;;;4594497;19;20393;-76
2024/01/15 03:01:09;;;;;;;7.20;5.90;;;13.00;94.80;;;;;;4593508;19;20009;-76
2024/01/15 03:02:45;;;;;;;7.70;6.37;;;13.00;94.90;;;;;;4594560;19;20013;-76
2024/01/15 03:04:19;;;;;;;7.43;6.40;;;13.00;94.90;;;;;;4593186;19;20098;-77
2024/01/15 03:05:53;;;;;;;8.27;7.27;;;13.00;94.90;;;;;;4594354;19;20409;-77
2024/01/15 03:07:29;;;;;;;8.03;6.40;;;13.00;94.90;;;;;;4594678;19;20009;-77
2024/01/15 03:09:03;;;;;;;7.00;6.00;;;13.00;94.80;;;;;;4594633;19;20026;-77
2024/01/15 03:10:37;;;;;;;8.20;6.67;;;13.00;94.80;;;;;;4593488;19;20032;-77
2024/01/15 03:12:12;;;;;;;7.93;6.47;;;13.00;94.80;;;;;;4592897;19;20011;-77
2024/01/15 03:13:46;;;;;;;8.80;7.23;;;13.00;94.80;;;;;;4593855;19;20002;-77
2024/01/15 03:15:20;;;;;;;7.93;6.63;;;13.00;94.80;;;;;;4594554;19;20005;-77
2024/01/15 03:16:55;;;;;;;8.40;6.93;;;13.00;94.80;;;;;;4594178;19;20003;-77
2024/01/15 03:18:29;;;;;;;7.87;6.37;;;13.00;94.70;;;;;;4593662;19;20069;-76
2024/01/15 03:20:03;;;;;;;8.17;7.03;;;12.90;94.70;;;;;;4594391;19;20009;-76
2024/01/15 03:21:38;;;;;;;7.20;6.43;;;13.00;94.70;;;;;;4594132;19;20017;-77
2024/01/15 03:23:12;;;;;;;8.30;6.93;;;12.90;94.70;;;;;;4594307;19;20310;-76
2024/01/15 03:24:53;;;;;;;7.57;6.67;;;12.90;94.70;;;;;;4594271;19;20020;-76
2024/01/15 03:26:28;;;;;;;8.67;7.43;;;12.90;94.70;;;;;;4594092;19;19998;-76
2024/01/15 03:28:01;;;;;;;8.93;8.03;;;13.00;94.70;;;;;;4594284;19;20095;-76
2024/01/15 03:29:35;;;;;;;8.53;6.83;;;13.00;94.70;;;;;;4594186;19;20002;-76
2024/01/15 03:31:10;;;;;;;8.73;6.90;;;13.00;94.70;;;;;;4592877;19;20014;-76
2024/01/15 03:32:44;;;;;;;8.20;6.40;;;12.90;94.60;;;;;;4593795;19;20057;-77
2024/01/15 03:34:17;;;;;;;8.13;6.87;;;12.90;94.70;;;;;;4594135;19;20002;-76
2024/01/15 03:35:52;;;;;;;9.87;7.63;;;12.90;94.70;;;;;;4594055;19;19999;-76
2024/01/15 03:37:28;;;;;;;7.87;6.77;;;12.90;94.70;;;;;;4592039;19;20436;-77
2024/01/15 03:39:02;;;;;;;8.93;7.13;;;12.90;94.70;;;;;;4592495;19;20425;-76
2024/01/15 03:40:38;;;;;;;8.93;7.50;;;12.90;94.70;;;;;;4592187;19;20017;-76
2024/01/15 03:42:12;;;;;;;8.30;6.60;;;12.90;94.70;;;;;;4593601;19;20450;-76
2024/01/15 03:43:46;;;;;;;8.33;7.20;;;12.90;94.70;;;;;;4593922;19;19999;-77
2024/01/15 03:45:21;;;;;;;8.93;7.47;;;12.90;94.70;;;;;;4594060;19;20007;-76
2024/01/15 03:46:55;;;;;;;7.87;6.73;;;12.90;94.70;;;;;;4593836;19;19998;-76
2024/01/15 03:48:28;;;;;;;9.63;7.60;;;12.90;94.70;;;;;;4593539;19;20002;-77
2024/01/15 03:50:03;;;;;;;8.47;7.23;;;12.90;94.60;;;;;;4593777;19;20094;-76
2024/01/15 03:51:38;;;;;;;8.87;7.20;;;12.90;94.60;;;;;;4593691;19;20015;-77
2024/01/15 03:53:12;;;;;;;8.60;6.90;;;12.90;94.60;;;;;;4592118;19;20007;-76
2024/01/15 03:54:47;;;;;;;9.30;7.37;;;12.90;94.60;;;;;;4593027;19;20025;-77
2024/01/15 03:56:21;;;;;;;8.13;7.03;;;12.90;94.60;;;;;;4593658;19;20026;-76
2024/01/15 03:57:55;;;;;;;10.13;7.73;;;12.90;94.60;;;;;;4593317;19;20002;-76
2024/01/15 03:59:30;;;;;;;10.80;8.13;;;12.90;94.50;;;;;;4593666;19;20306;-76
2024/01/15 04:01:04;;;;;;;8.80;7.23;;;12.90;94.50;;;;;;4592715;19;20294;-76
2024/01/15 04:02:37;;;;;;;7.50;6.17;;;12.90;94.50;;;;;;4593521;19;20413;-76
2024/01/15 04:04:12;;;;;;;8.70;7.30;;;12.90;94.50;;;;;;4593456;19;19998;-76
2024/01/15 04:05:46;;;;;;;8.33;7.03;;;12.90;94.50;;;;;;4593180;19;20002;-77
2024/01/15 04:07:20;;;;;;;8.70;7.23;;;12.90;94.40;;;;;;4593432;19;20002;-76
2024/01/15 04:08:55;;;;;;;8.60;7.33;;;12.90;94.40;;;;;;4593883;19;20017;-76
2024/01/15 04:10:29;;;;;;;8.50;6.53;;;12.90;94.40;;;;;;4592672;19;20014;-76
2024/01/15 04:12:03;;;;;;;10.20;7.37;;;12.90;94.50;;;;;;4593154;19;20066;-76
2024/01/15 04:13:39;;;;;;;8.20;6.93;;;12.90;94.40;;;;;;4593014;19;20010;-76
2024/01/15 04:15:13;;;;;;;7.83;7.03;;;12.90;94.40;;;;;;4592961;19;20002;-76
2024/01/15 04:16:46;;;;;;;9.20;7.97;;;12.90;94.40;;;;;;4593210;19;20432;-77
2024/01/15 04:18:21;;;;;;;9.80;8.17;;;12.90;94.40;;;;;;4592362;19;20002;-77
2024/01/15 04:19:55;;;;;;;10.47;7.73;;;12.90;94.40;;;;;;4593180;19;20035;-77
2024/01/15 04:21:29;;;;;;;8.93;7.40;;;12.90;94.40;;;;;;4590482;19;19998;-77
2024/01/15 04:23:04;;;;;;;9.43;7.80;;;12.90;94.40;;;;;;4592785;19;20005;-76
2024/01/15 04:24:38;;;;;;;9.57;8.07;;;12.90;94.40;;;;;;4592835;19;20002;-77
2024/01/15 04:26:12;;;;;;;9.37;7.57;;;12.80;94.40;;;;;;4593045;19;20070;-76
2024/01/15 04:27:48;;;;;;;9.53;7.43;;;12.80;94.40;;;;;;4593084;19;20450;-77
2024/01/15 04:29:22;;;;;;;8.80;7.37;;;12.90;94.40;;;;;;4592721;19;20002;-77
2024/01/15 04:30:57;;;;;;;9.33;7.80;;;12.90;94.50;;;;;;4592032;19;20013;-77
2024/01/15 04:32:33;;;;;;;10.33;7.70;;;12.90;94.50;;;;;;4593004;19;20033;-76
2024/01/15 04:34:06;;;;;;;10.67;8.77;;;12.90;94.80;;;;;;4592892;19;20031;-76
2024/01/15 04:35:40;;;;;;;9.97;8.23;;;12.90;94.50;;;;;;4592598;19;20006;-77
2024/01/15 04:37:15;;;;;;;8.93;7.23;;;12.90;94.50;;;;;;4592567;19;20000;-76
2024/01/15 04:38:49;;;;;;;10.50;8.53;;;12.80;94.50;;;;;;4590339;19;20002;-77
2024/01/15 04:40:23;;;;;;;9.13;7.20;;;12.90;94.60;;;;;;4592105;19;20009;-77
2024/01/15 04:41:58;;;;;;;8.77;7.20;;;12.90;94.50;;;;;;4591121;19;20019;-77
2024/01/15 04:43:31;;;;;;;10.03;7.77;;;12.90;94.60;;;;;;4592360;19;20002;-77
2024/01/15 04:45:05;;;;;;;8.57;7.03;;;12.90;94.60;;;;;;4592589;19;20042;-77
2024/01/15 04:46:43;;;;;;;11.37;8.63;;;13.00;94.60;;;;;;4592729;19;20313;-78
2024/01/15 04:48:17;;;;;;;10.30;8.00;;;13.10;94.60;;;;;;4592671;19;20078;-77
2024/01/15 04:49:51;;;;;;;10.07;7.57;;;13.20;94.40;;;;;;4591880;19;20066;-77
2024/01/15 04:51:26;;;;;;;9.67;7.70;;;13.40;94.40;;;;;;4590155;19;20444;-77
2024/01/15 04:53:00;;;;;;;8.60;7.53;;;13.50;94.20;;;;;;4591853;19;20114;-77
2024/01/15 04:54:34;;;;;;;10.07;7.67;;;13.60;94.00;;;;;;4592536;19;20009;-77
2024/01/15 04:56:09;;;;;;;8.73;7.60;;;13.80;93.90;;;;;;4592600;19;20006;-77
2024/01/15 04:57:42;;;;;;;9.57;7.33;;;13.90;93.70;;;;;;4592205;19;19998;-77
2024/01/15 04:59:16;;;;;;;8.97;7.17;;;14.00;93.60;;;;;;4591005;19;20013;-77
2024/01/15 05:00:51;;;;;;;8.70;7.70;;;14.20;93.60;;;;;;4591485;19;20013;-77
2024/01/15 05:02:25;;;;;;;10.37;8.00;;;14.30;93.40;;;;;;4592450;19;20505;-76
2024/01/15 05:04:26;;;;;;;10.57;8.50;;;14.30;93.30;;;;;;4613082;19;21426;-76
2024/01/15 05:06:03;;;;;;;9.90;8.60;;;14.40;93.20;;;;;;4614879;19;20010;-77
2024/01/15 05:07:37;;;;;;;10.43;9.17;;;14.30;93.20;;;;;;4614722;19;20002;-76
2024/01/15 05:09:11;;;;;;;9.53;8.13;;;14.30;93.30;;;;;;4614595;19;20014;-76
2024/01/15 05:10:46;;;;;;;9.23;7.90;;;14.40;93.30;;;;;;4613860;19;20018;-76
2024/01/15 05:12:21;;;;;;;12.80;9.57;;;14.40;93.20;;;;;;4614680;19;20314;-76
2024/01/15 05:13:55;;;;;;;10.07;8.17;;;14.40;93.20;;;;;;4614381;19;20014;-75
2024/01/15 05:15:30;;;;;;;9.77;7.93;;;14.40;93.20;;;;;;4614752;19;20003;-76
2024/01/15 05:17:04;;;;;;;9.70;7.50;;;14.30;93.20;;;;;;4614597;19;19998;-76
2024/01/15 05:18:38;;;;;;;11.27;9.83;;;14.30;93.40;;;;;;4614627;19;20164;-75
2024/01/15 05:20:13;;;;;;;10.50;7.72;;;14.30;93.40;;;;;;4614060;19;20007;-75
2024/01/15 05:21:47;;;;;;;9.87;8.07;;;14.30;93.30;;;;;;4614513;19;19999;-76
2024/01/15 05:23:21;;;;;;;9.20;8.03;;;14.20;93.30;;;;;;4613662;19;20073;-76
2024/01/15 05:24:56;;;;;;;10.23;8.63;;;14.10;93.40;;;;;;4614258;19;20430;-76
2024/01/15 05:26:30;;;;;;;9.37;7.37;;;14.20;93.70;;;;;;4614371;19;20023;-76
2024/01/15 05:28:06;;;;;;;11.07;8.23;;;14.20;93.50;;;;;;4613021;19;20002;-75
2024/01/15 05:29:41;;;;;;;9.10;7.47;;;14.20;93.50;;;;;;4613114;19;20429;-75
2024/01/15 05:31:15;;;;;;;9.93;8.40;;;14.30;93.50;;;;;;4612230;19;20018;-76
2024/01/15 05:32:49;;;;;;;9.50;7.53;;;14.40;93.40;;;;;;4613997;19;20084;-76
2024/01/15 05:34:24;;;;;;;11.83;8.53;;;14.50;93.30;;;;;;4612891;19;20029;-76
2024/01/15 05:35:58;;;;;;;8.87;6.97;;;14.60;93.20;;;;;;4613597;19;20014;-75
2024/01/15 05:37:32;;;;;;;10.70;8.23;;;14.60;93.10;;;;;;4614141;19;20002;-75
2024/01/15 05:39:08;;;;;;;12.73;8.50;;;14.70;93.10;;;;;;4613854;19;20011;-75
2024/01/15 05:40:43;;;;;;;20.70;13.73;;;14.70;93.00;;;;;;4613010;19;20025;-76
2024/01/15 05:42:16;;;;;;;9.30;7.87;;;14.70;93.10;;;;;;4614038;19;20003;-76
2024/01/15 05:43:51;;;;;;;10.10;8.07;;;14.80;93.00;;;;;;4612404;19;20070;-76
2024/01/15 05:45:27;;;;;;;12.23;8.77;;;14.80;93.00;;;;;;4613984;19;19998;-75
2024/01/15 05:47:01;;;;;;;11.23;8.87;;;14.90;93.00;;;;;;4612746;19;20006;-75
2024/01/15 05:48:36;;;;;;;16.03;11.47;;;14.90;92.90;;;;;;4613392;19;20437;-75
2024/01/15 05:50:10;;;;;;;10.93;9.73;;;15.00;92.80;;;;;;4613477;19;20022;-75
2024/01/15 05:51:44;;;;;;;11.87;9.93;;;15.00;92.80;;;;;;4612269;19;20327;-74
2024/01/15 05:53:19;;;;;;;14.07;11.85;;;15.00;92.80;;;;;;4613264;19;20003;-75
2024/01/15 05:54:53;;;;;;;13.27;10.33;;;15.00;92.70;;;;;;4613763;19;20006;-75
2024/01/15 05:56:28;;;;;;;11.85;8.23;;;15.00;92.70;;;;;;4613778;19;20002;-75
2024/01/15 05:58:03;;;;;;;9.13;7.17;;;15.00;92.60;;;;;;4613781;19;20006;-75
2024/01/15 05:59:37;;;;;;;9.83;7.43;;;14.90;92.60;;;;;;4613427;19;20032;-75
2024/01/15 06:01:11;;;;;;;12.27;8.63;;;14.90;92.60;;;;;;4612058;19;20006;-74
2024/01/15 06:02:47;;;;;;;10.25;7.20;;;14.80;92.60;;;;;;4613389;19;20029;-75
2024/01/15 06:04:22;;;;;;;8.75;7.70;;;14.80;92.60;;;;;;4613505;19;20002;-75
2024/01/15 06:05:55;;;;;;;9.57;6.93;;;14.70;92.70;;;;;;4613810;19;20002;-75
2024/01/15 06:07:31;;;;;;;10.60;7.27;;;14.60;92.60;;;;;;4613505;19;20039;-75
2024/01/15 06:09:08;;;;;;;22.97;16.07;;;14.60;92.70;;;;;;4613213;19;20291;-75
2024/01/15 06:10:43;;;;;;;13.98;8.95;;;14.60;92.70;;;;;;4612434;19;20010;-75
2024/01/15 06:12:18;;;;;;;19.63;11.03;;;14.50;92.70;;;;;;4613190;19;20002;-75
2024/01/15 06:13:52;;;;;;;11.83;7.97;;;14.40;92.80;;;;;;4613435;19;20469;-75
2024/01/15 06:15:25;;;;;;;14.77;10.03;;;14.40;92.80;;;;;;4598908;19;20302;-75
2024/01/15 06:17:00;;;;;;;12.70;8.67;;;14.30;92.70;;;;;;4595262;19;20006;-75
2024/01/15 06:18:34;;;;;;;14.23;8.63;;;14.30;92.80;;;;;;4595147;19;20314;-76
2024/01/15 06:20:09;;;;;;;16.98;10.90;;;14.20;92.80;;;;;;4595051;19;20002;-73
2024/01/15 06:21:44;;;;;;;13.67;8.87;;;14.20;92.70;;;;;;4595510;19;20099;-75
2024/01/15 06:23:18;;;;;;;15.67;9.37;;;14.20;92.70;;;;;;4594886;19;20073;-74
2024/01/15 06:24:52;;;;;;;18.00;9.70;;;14.10;92.60;;;;;;4593753;19;20037;-77
2024/01/15 06:26:27;;;;;;;12.23;7.83;;;14.10;92.60;;;;;;4594761;19;20414;-77
2024/01/15 06:28:01;;;;;;;12.57;7.17;;;14.00;92.60;;;;;;4594965;19;20013;-77
2024/01/15 06:29:37;;;;;;;9.03;5.60;;;14.00;92.50;;;;;;4595281;19;20335;-78
2024/01/15 06:31:13;;;;;;;11.20;7.67;;;14.00;92.30;;;;;;4592535;19;20002;-77
2024/01/15 06:32:47;;;;;;;15.40;9.03;;;14.00;92.30;;;;;;4593695;19;20003;-78
2024/01/15 06:34:22;;;;;;;12.90;6.93;;;13.90;92.20;;;;;;4594606;19;20005;-78
2024/01/15 06:35:57;;;;;;;17.47;10.57;;;13.90;92.20;;;;;;4595146;19;20002;-77
2024/01/15 06:37:32;;;;;;;24.40;12.97;;;13.90;92.20;;;;;;4595102;19;20006;-77
2024/01/15 06:39:06;;;;;;;16.37;10.13;;;13.80;92.20;;;;;;4594718;19;20011;-76
2024/01/15 06:40:45;;;;;;;10.07;7.40;;;13.80;92.30;;;;;;4594341;19;20007;-76
2024/01/15 06:42:19;;;;;;;16.33;10.93;;;13.80;92.30;;;;;;4595097;19;20418;-76
2024/01/15 06:43:52;;;;;;;15.73;9.60;;;13.70;92.40;;;;;;4593463;19;20011;-76
2024/01/15 06:45:27;;;;;;;13.30;7.27;;;13.70;92.40;;;;;;4594682;19;20292;-74
2024/01/15 06:47:02;;;;;;;10.63;7.90;;;13.70;92.30;;;;;;4594563;19;19998;-76
2024/01/15 06:48:36;;;;;;;9.47;5.80;;;13.70;92.30;;;;;;4594893;19;20019;-77
2024/01/15 06:50:11;;;;;;;10.97;6.80;;;13.60;92.30;;;;;;4594660;19;20293;-77
2024/01/15 06:51:45;;;;;;;13.90;8.53;;;13.60;92.40;;;;;;4594604;19;19999;-76
2024/01/15 06:53:19;;;;;;;10.93;7.57;;;13.60;92.40;;;;;;4594778;19;20448;-77
2024/01/15 06:54:54;;;;;;;11.97;7.57;;;13.60;92.40;;;;;;4594496;19;20003;-77
2024/01/15 06:56:28;;;;;;;16.37;9.63;;;13.60;92.30;;;;;;4594743;19;20079;-77
2024/01/15 06:58:02;;;;;;;25.90;15.90;;;13.60;92.30;;;;;;4594346;19;20003;-77
2024/01/15 06:59:38;;;;;;;11.73;6.57;;;13.50;92.30;;;;;;4594599;19;20019;-76
2024/01/15 07:01:12;;;;;;;10.63;6.20;;;13.50;92.20;;;;;;4593430;19;20006;-75
2024/01/15 07:02:46;;;;;;;10.33;5.80;;;13.60;92.20;;;;;;4594496;19;20450;-76
2024/01/15 07:04:21;;;;;;;8.97;5.37;;;13.50;92.10;;;;;;4592816;19;20015;-75
2024/01/15 07:05:55;;;;;;;14.63;6.83;;;13.60;92.10;;;;;;4594484;19;20006;-76
2024/01/15 07:07:29;;;;;;;12.90;6.97;;;13.60;92.00;;;;;;4593339;19;20434;-76
2024/01/15 07:09:04;;;;;;;9.40;5.70;;;13.60;92.00;;;;;;4594119;19;20006;-76
2024/01/15 07:10:38;;;;;;;10.37;6.60;;;13.60;91.90;;;;;;4592105;19;20450;-76
2024/01/15 07:12:14;;;;;;;13.27;8.60;;;13.60;91.90;;;;;;4593973;19;20421;-76
2024/01/15 07:13:49;;;;;;;10.70;7.93;;;13.60;91.90;;;;;;4594097;19;20010;-76
2024/01/15 07:15:23;;;;;;;11.90;7.60;;;13.70;91.90;;;;;;4594306;19;20351;-76
2024/01/15 07:16:58;;;;;;;15.20;11.63;;;13.70;91.80;;;;;;4594035;19;20013;-76
2024/01/15 07:18:33;;;;;;;12.63;7.53;;;13.70;91.70;;;;;;4592692;19;20077;-76
2024/01/15 07:20:08;;;;;;;12.07;7.53;;;13.60;91.60;;;;;;4593457;19;20005;-76
2024/01/15 07:21:42;;;;;;;9.80;6.93;;;13.70;91.60;;;;;;4594170;19;20002;-76
2024/01/15 07:23:17;;;;;;;13.40;8.10;;;13.60;91.60;;;;;;4593476;19;20422;-77
2024/01/15 07:24:52;;;;;;;12.53;8.20;;;13.60;91.60;;;;;;4594013;19;20023;-76
2024/01/15 07:26:27;;;;;;;17.27;11.47;;;13.60;91.70;;;;;;4592498;19;19998;-76
2024/01/15 07:28:03;;;;;;;15.10;10.10;;;13.60;91.80;;;;;;4593494;19;20304;-77
2024/01/15 07:29:37;;;;;;;12.20;8.37;;;13.60;91.80;;;;;;4594045;19;20002;-76
2024/01/15 07:31:11;;;;;;;11.07;6.77;;;13.60;92.00;;;;;;4591362;19;20037;-76
2024/01/15 07:32:46;;;;;;;9.90;6.90;;;13.50;91.70;;;;;;4593233;19;20070;-76
2024/01/15 07:34:20;;;;;;;11.70;8.27;;;13.50;91.70;;;;;;4593618;19;20070;-76
2024/01/15 07:35:55;;;;;;;11.87;8.03;;;13.50;91.80;;;;;;4593528;19;20012;-76
2024/01/15 07:37:29;;;;;;;13.27;8.80;;;13.50;92.00;;;;;;4593645;19;20093;-76
2024/01/15 07:39:04;;;;;;;23.17;15.20;;;13.40;91.80;;;;;;4593782;19;20002;-76
2024/01/15 07:40:38;;;;;;;13.53;8.00;;;13.50;91.90;;;;;;4593266;19;20006;-76
2024/01/15 07:42:14;;;;;;;8.53;5.83;;;13.40;91.80;;;;;;4593487;19;20010;-76
2024/01/15 07:43:48;;;;;;;7.13;4.87;;;13.40;91.80;;;;;;4592910;19;20002;-76
2024/01/15 07:45:22;;;;;;;7.80;6.03;;;13.40;91.80;;;;;;4593417;19;20454;-76
2024/01/15 07:46:57;;;;;;;8.67;5.43;;;13.40;92.00;;;;;;4593311;19;20040;-76
2024/01/15 07:48:31;;;;;;;9.83;5.90;;;13.30;91.90;;;;;;4593577;19;20027;-76
2024/01/15 07:50:05;;;;;;;8.00;5.10;;;13.30;92.00;;;;;;4593578;19;20002;-76
2024/01/15 07:51:40;;;;;;;8.47;5.20;;;13.30;92.00;;;;;;4593537;19;20441;-77
2024/01/15 07:53:14;;;;;;;9.27;6.20;;;13.30;92.00;;;;;;4593238;19;20020;-76
2024/01/15 07:54:48;;;;;;;8.97;5.83;;;13.30;92.00;;;;;;4593234;19;19998;-77
2024/01/15 07:56:24;;;;;;;11.73;8.97;;;13.20;92.00;;;;;;4593128;19;20003;-76
2024/01/15 07:58:01;;;;;;;13.30;7.40;;;13.20;92.00;;;;;;4593129;19;20034;-76
2024/01/15 07:59:36;;;;;;;13.23;8.83;;;13.20;92.10;;;;;;4593130;19;20022;-76
2024/01/15 08:01:11;;;;;;;14.73;10.37;;;13.20;92.10;;;;;;4592201;19;20010;-77
2024/01/15 08:02:45;;;;;;;9.53;6.30;;;13.20;92.20;;;;;;4593057;19;20006;-76
2024/01/15 08:04:19;;;;;;;8.00;4.60;;;13.20;92.20;;;;;;4591554;19;20038;-76
2024/01/15 08:05:55;;;;;;;9.07;5.70;;;13.20;92.20;;;;;;4593751;19;20078;-76
2024/01/15 08:07:29;;;;;;;9.93;6.60;;;13.20;92.20;;;;;;4593666;19;20006;-76
2024/01/15 08:09:03;;;;;;;7.17;5.17;;;13.20;92.30;;;;;;4592896;19;19999;-77
2024/01/15 08:10:38;;;;;;;8.13;5.33;;;13.20;92.30;;;;;;4592806;19;20010;-76
2024/01/15 08:12:12;;;;;;;7.43;4.90;;;13.20;92.30;;;;;;4592748;19;20010;-77
2024/01/15 08:13:46;;;;;;;7.33;5.20;;;13.10;92.40;;;;;;4593081;19;20003;-76
2024/01/15 08:15:21;;;;;;;7.23;5.13;;;13.20;92.40;;;;;;4592747;19;20335;-76
2024/01/15 08:16:56;;;;;;;7.13;5.03;;;13.10;92.40;;;;;;4592748;19;20032;-76
2024/01/15 08:18:30;;;;;;;6.03;4.60;;;13.10;92.40;;;;;;4592696;19;20026;-76
2024/01/15 08:20:05;;;;;;;6.90;5.03;;;13.10;92.50;;;;;;4593087;19;20009;-76
2024/01/15 08:21:39;;;;;;;6.63;4.87;;;13.20;93.00;;;;;;4592580;19;20013;-76